Time;durP1;ratioP1;P1;durP2;ratioP2;P2;SDS_P1;SDS_P2;PMS_P1;PMS_P2;Temp;Humidity;BMP_temperature;BMP_pressure;BME280_temperature;BME280_humidity;BME280_pressure;Samples;Min_cycle;Max_cycle;Signal;HPM_P1;HPM_P2
2023/04/01 00:03:12;;;;;;;2.70;2.30;;;;;;;11.74;50.52;98552.06;10434383;28;20243;-71
2023/04/01 00:08:15;;;;;;;4.83;2.83;;;;;;;9.21;54.27;98393.91;10433056;28;20244;-74
2023/04/01 00:13:17;;;;;;;3.57;2.50;;;;;;;10.39;53.00;98518.44;10436172;28;20567;-71
2023/04/01 00:18:19;;;;;;;3.90;2.00;;;;;;;10.18;53.16;98508.88;10441412;28;20231;-70
2023/04/01 00:23:21;;;;;;;2.73;2.20;;;;;;;11.18;51.76;98547.59;10442826;28;20618;-71
2023/04/01 00:28:22;;;;;;;2.67;1.90;;;;;;;11.44;50.61;98543.88;10442655;28;20239;-70
2023/04/01 00:33:24;;;;;;;5.07;2.70;;;;;;;11.30;50.11;98529.75;10437702;28;20675;-73
2023/04/01 00:38:26;;;;;;;2.23;2.03;;;;;;;11.68;49.52;98560.16;10441321;28;20713;-74
2023/04/01 00:43:27;;;;;;;4.37;2.10;;;;;;;11.32;48.90;98534.91;10431837;28;20713;-71
2023/04/01 00:48:39;;;;;;;3.93;2.50;;;;;;;13.07;47.80;98650.75;10439958;28;20243;-74
2023/04/01 00:53:45;;;;;;;5.60;2.40;;;;;;;12.17;48.66;98577.97;10437965;28;20232;-73
2023/04/01 00:58:51;;;;;;;4.40;2.17;;;;;;;12.15;48.61;98561.28;10438160;28;20240;-73
2023/04/01 01:03:52;;;;;;;3.30;2.47;;;;;;;11.54;48.87;98524.59;10437577;28;20727;-73
2023/04/01 01:09:30;;;;;;;3.90;2.37;;;;;;;12.04;48.38;98551.31;10440670;28;20240;-72
2023/04/01 01:14:37;;;;;;;3.80;2.20;;;;;;;11.87;47.47;98550.28;10433837;28;20231;-73
2023/04/01 01:20:30;;;;;;;3.30;1.97;;;;;;;11.69;47.71;98510.88;10435607;28;20235;-69
2023/04/01 01:25:37;;;;;;;3.87;2.07;;;;;;;11.81;47.64;98501.03;10432800;28;20230;-72
2023/04/01 01:30:59;;;;;;;3.10;2.23;;;;;;;11.89;47.56;98489.22;10434761;28;20246;-71
2023/04/01 01:36:05;;;;;;;2.97;2.03;;;;;;;10.88;49.55;98457.22;10437161;28;20304;-72
2023/04/01 01:41:09;;;;;;;2.60;2.40;;;;;;;9.71;53.52;98380.81;10434217;28;20235;-73
2023/04/01 01:46:16;;;;;;;2.83;2.37;;;;;;;11.56;50.05;98452.88;10430678;28;20355;-73
2023/04/01 01:51:22;;;;;;;2.40;2.20;;;;;;;10.76;51.79;98434.91;10435044;28;20679;-72
2023/04/01 01:56:28;;;;;;;2.37;2.00;;;;;;;9.41;53.93;98329.78;10433729;28;20614;-73
2023/04/01 02:01:32;;;;;;;3.17;1.87;;;;;;;10.24;53.34;98413.63;10436063;28;20232;-73
2023/04/01 02:06:38;;;;;;;2.53;2.20;;;;;;;10.08;52.72;98415.78;10438190;28;20354;-73
2023/04/01 02:11:49;;;;;;;3.83;2.30;;;;;;;10.62;51.36;98432.28;10430485;28;20228;-73
2023/04/01 02:16:59;;;;;;;2.63;2.00;;;;;;;11.23;50.07;98441.47;10434645;28;20232;-73
2023/04/01 02:22:04;;;;;;;2.47;1.90;;;;;;;10.16;50.76;98398.69;10425511;28;20613;-73
2023/04/01 02:27:06;;;;;;;11.90;2.57;;;;;;;9.34;51.68;98323.66;10432830;28;20246;-73
2023/04/01 02:32:08;;;;;;;1.70;1.63;;;;;;;10.32;50.39;98403.50;10430337;28;20235;-73
2023/04/01 02:37:12;;;;;;;2.30;1.93;;;;;;;8.95;51.57;98280.09;10431705;28;20224;-73
2023/04/01 02:42:14;;;;;;;1.53;1.47;;;;;;;9.66;52.18;98383.28;10432197;28;20232;-71
2023/04/01 02:47:15;;;;;;;2.00;1.90;;;;;;;9.77;52.67;98408.53;10432187;28;20232;-73
2023/04/01 02:52:17;;;;;;;3.07;1.90;;;;;;;10.06;51.40;98422.41;10435101;28;20227;-72
2023/04/01 02:57:19;;;;;;;1.90;1.80;;;;;;;10.68;51.10;98442.13;10430842;28;20606;-72
2023/04/01 03:02:21;;;;;;;1.90;1.80;;;;;;;8.96;53.19;98327.06;10424738;28;20236;-71
2023/04/01 03:07:23;;;;;;;1.40;1.40;;;;;;;11.67;49.66;98489.66;10396548;28;20714;-71
2023/04/01 03:12:25;;;;;;;1.67;1.57;;;;;;;8.07;54.97;98207.44;10437050;28;20243;-71
2023/04/01 03:17:27;;;;;;;2.00;1.90;;;;;;;10.76;51.09;98458.97;10431848;28;20224;-73
2023/04/01 03:22:28;;;;;;;1.67;1.57;;;;;;;8.45;53.81;98268.09;10431651;28;20233;-71
2023/04/01 03:27:30;;;;;;;1.60;1.50;;;;;;;9.94;52.66;98417.72;10426722;28;20723;-71
2023/04/01 03:32:32;;;;;;;2.30;1.57;;;;;;;9.45;52.23;98376.41;10427867;28;20285;-71
2023/04/01 03:37:33;;;;;;;1.77;1.50;;;;;;;10.28;51.17;98413.00;10428010;28;20256;-70
2023/04/01 03:42:35;;;;;;;1.93;1.70;;;;;;;9.92;51.96;98416.28;10433546;28;20317;-71
2023/04/01 03:47:38;;;;;;;1.90;1.80;;;;;;;9.07;53.13;98349.63;10434120;28;20980;-71
2023/04/01 03:52:40;;;;;;;1.70;1.60;;;;;;;10.18;51.65;98411.84;10434731;28;20801;-71
2023/04/01 03:57:41;;;;;;;2.13;1.77;;;;;;;9.99;52.72;98424.25;10439645;28;20229;-70
2023/04/01 04:02:43;;;;;;;2.70;2.17;;;;;;;10.62;51.29;98428.81;10435947;28;20285;-71
2023/04/01 04:07:45;;;;;;;4.13;1.80;;;;;;;10.02;52.14;98408.63;10439244;28;20451;-71
2023/04/01 04:12:46;;;;;;;3.13;2.10;;;;;;;10.77;51.42;98434.69;10432977;28;20242;-71
2023/04/01 04:17:48;;;;;;;2.87;2.20;;;;;;;10.42;51.46;98418.25;10440604;28;20231;-75
2023/04/01 04:22:50;;;;;;;3.10;2.50;;;;;;;10.79;51.38;98431.78;10441957;28;20259;-74
2023/04/01 04:27:51;;;;;;;3.30;2.40;;;;;;;10.74;51.52;98442.28;10438043;28;20644;-74
2023/04/01 04:32:53;;;;;;;3.67;2.20;;;;;;;10.80;51.09;98417.34;10434818;28;20617;-75
2023/04/01 04:37:54;;;;;;;3.30;2.00;;;;;;;9.90;51.83;98376.41;10440674;28;20231;-75
2023/04/01 04:42:56;;;;;;;3.73;2.07;;;;;;;8.90;53.54;98279.91;10431184;28;20289;-73
2023/04/01 04:47:58;;;;;;;5.20;2.40;;;;;;;10.46;50.54;98387.34;10440484;28;20266;-75
2023/04/01 04:53:00;;;;;;;4.33;2.57;;;;;;;10.53;51.56;98420.25;10434837;28;20232;-75
2023/04/01 04:58:01;;;;;;;4.33;2.13;;;;;;;10.35;50.80;98393.41;10439573;28;20671;-75
2023/04/01 05:03:03;;;;;;;4.77;2.33;;;;;;;11.15;50.36;98432.91;10438455;28;20293;-75
2023/04/01 05:08:06;;;;;;;4.77;2.60;;;;;;;11.29;49.71;98438.94;10431785;28;20777;-75
2023/04/01 05:13:07;;;;;;;3.03;1.87;;;;;;;10.51;51.04;98414.25;10430396;28;20224;-73
2023/04/01 05:18:09;;;;;;;2.60;2.40;;;;;;;10.47;50.83;98387.13;10439550;28;20239;-74
2023/04/01 05:23:12;;;;;;;3.83;2.10;;;;;;;11.19;49.97;98442.13;10433069;28;20311;-73
2023/04/01 05:28:14;;;;;;;5.63;2.10;;;;;;;10.11;51.85;98379.81;10428979;28;21095;-73
2023/04/01 05:33:16;;;;;;;2.80;1.90;;;;;;;10.08;52.85;98369.53;10432373;28;20765;-75
2023/04/01 05:38:17;;;;;;;2.23;1.70;;;;;;;10.43;52.31;98385.13;10429157;28;20242;-75
2023/04/01 05:43:19;;;;;;;3.63;1.93;;;;;;;9.61;53.58;98351.06;10439448;28;20239;-73
2023/04/01 05:48:21;;;;;;;4.63;1.93;;;;;;;9.41;53.57;98337.81;10433723;28;20783;-74
2023/04/01 05:53:22;;;;;;;4.00;2.27;;;;;;;9.74;54.10;98377.72;10425581;28;20236;-75
2023/04/01 05:58:24;;;;;;;3.53;2.00;;;;;;;8.47;55.34;98275.84;10428289;28;20235;-75
2023/04/01 06:03:25;;;;;;;2.33;1.80;;;;;;;10.12;53.91;98389.44;10436867;28;20290;-75
2023/04/01 06:08:30;;;;;;;2.30;2.10;;;;;;;10.19;52.92;98376.03;10434277;28;20684;-75
2023/04/01 06:13:34;;;;;;;5.17;2.40;;;;;;;10.21;53.93;98400.69;10426861;28;20731;-75
2023/04/01 06:18:55;;;;;;;3.40;2.37;;;;;;;9.74;54.89;98377.72;10431326;28;20239;-76
2023/04/01 06:24:20;;;;;;;3.00;2.70;;;;;;;9.56;56.42;98374.91;10431827;28;20238;-75
2023/04/01 06:29:59;;;;;;;3.77;2.37;;;;;;;9.85;54.57;98386.91;10434853;28;20311;-75
2023/04/01 06:35:31;;;;;;;1.93;1.73;;;;;;;10.51;53.50;98406.25;10427813;28;20260;-75
2023/04/01 06:40:53;;;;;;;2.20;2.00;;;;;;;10.73;53.11;98413.88;10425331;28;20224;-75
2023/04/01 06:46:09;;;;;;;2.13;1.80;;;;;;;10.61;53.93;98429.84;10422120;28;20227;-73
2023/04/01 06:51:19;;;;;;;2.53;2.13;;;;;;;9.83;54.72;98380.97;10400937;28;20228;-75
2023/04/01 06:56:26;;;;;;;3.87;2.13;;;;;;;10.67;52.69;98410.25;10430213;28;20224;-75
2023/04/01 07:01:53;;;;;;;2.47;2.00;;;;;;;9.87;54.81;98411.59;10434902;28;20239;-75
2023/04/01 07:07:43;;;;;;;2.40;2.17;;;;;;;9.68;54.26;98361.72;10434352;28;20236;-74
2023/04/01 07:12:51;;;;;;;2.53;2.10;;;;;;;10.73;53.77;98428.13;10419571;28;20253;-73
2023/04/01 07:18:02;;;;;;;1.93;1.73;;;;;;;8.38;57.03;98269.91;10440030;28;20244;-73
2023/04/01 07:23:16;;;;;;;3.90;2.40;;;;;;;10.08;56.48;98441.72;10440772;28;20255;-75
2023/04/01 07:28:18;;;;;;;5.33;2.80;;;;;;;9.41;55.94;98391.19;10436226;28;20230;-75
2023/04/01 07:33:31;;;;;;;2.63;2.37;;;;;;;7.44;60.07;98188.34;10450418;28;20220;-75
2023/04/01 07:38:35;;;;;;;2.93;2.60;;;;;;;9.57;57.83;98425.44;10448366;28;20235;-77
2023/04/01 07:43:53;;;;;;;2.80;2.33;;;;;;;9.63;56.40;98401.59;10446550;28;20223;-76
2023/04/01 07:49:13;;;;;;;4.37;2.17;;;;;;;9.24;58.13;98414.06;10437885;28;20290;-76
2023/04/01 07:54:42;;;;;;;5.23;2.10;;;;;;;10.47;56.32;98450.50;10443297;28;20964;-75
2023/04/01 07:59:57;;;;;;;2.80;2.33;;;;;;;10.03;55.79;98412.94;10426158;28;20282;-75
2023/04/01 08:05:11;;;;;;;3.63;2.80;;;;;;;10.13;56.22;98456.06;10450630;28;20239;-75
2023/04/01 08:10:39;;;;;;;3.53;2.50;;;;;;;11.01;54.62;98489.22;10433255;28;20227;-76
2023/04/01 08:15:57;;;;;;;3.83;2.57;;;;;;;8.69;58.55;98366.28;10437899;28;20688;-76
2023/04/01 08:21:02;;;;;;;2.27;2.07;;;;;;;11.48;54.52;98541.56;10431748;28;20226;-74
2023/04/01 08:26:36;;;;;;;2.43;2.23;;;;;;;9.96;57.73;98463.75;10434884;28;20319;-76
2023/04/01 08:31:40;;;;;;;5.77;3.60;;;;;;;9.45;57.51;98451.19;10430328;28;20240;-75
2023/04/01 08:36:50;;;;;;;9.07;2.83;;;;;;;11.36;55.42;98555.69;10431861;28;20291;-76
2023/04/01 08:42:47;;;;;;;3.03;2.20;;;;;;;11.66;54.19;98573.78;10431346;28;20249;-76
2023/04/01 08:48:14;;;;;;;2.60;2.40;;;;;;;8.15;60.35;98321.00;10428339;28;20239;-76
2023/04/01 08:53:15;;;;;;;2.50;2.30;;;;;;;9.51;58.44;98471.69;10432705;28;20224;-76
2023/04/01 08:58:17;;;;;;;3.10;2.10;;;;;;;8.53;59.65;98362.19;10433505;28;20231;-76
2023/04/01 09:03:37;;;;;;;2.70;2.50;;;;;;;9.68;58.85;98485.41;10431459;28;20244;-76
2023/04/01 09:09:01;;;;;;;2.53;2.33;;;;;;;10.56;56.62;98526.78;10417882;28;20228;-75
2023/04/01 09:14:03;;;;;;;3.53;2.03;;;;;;;10.91;55.94;98561.16;10428830;28;20227;-75
2023/04/01 09:19:16;;;;;;;3.73;2.27;;;;;;;11.37;55.36;98589.47;10435414;28;20224;-76
2023/04/01 09:24:42;;;;;;;2.23;2.10;;;;;;;9.10;57.73;98438.09;10437810;28;20228;-75
2023/04/01 09:29:44;;;;;;;2.53;2.33;;;;;;;9.65;58.51;98528.56;10430252;28;20588;-76
2023/04/01 09:35:00;;;;;;;3.37;2.40;;;;;;;10.38;56.92;98532.00;10432375;28;20720;-73
2023/04/01 09:40:18;;;;;;;2.73;2.27;;;;;;;10.65;56.36;98559.47;10427988;28;20278;-72
2023/04/01 09:45:23;;;;;;;2.77;2.50;;;;;;;10.73;56.90;98574.44;10433976;28;20229;-75
2023/04/01 09:50:52;;;;;;;2.60;2.40;;;;;;;10.31;56.50;98538.25;10426464;28;20285;-75
2023/04/01 09:56:28;;;;;;;5.70;2.33;;;;;;;12.34;53.67;98698.06;10428247;28;20368;-75
2023/04/01 10:01:45;;;;;;;4.53;3.27;;;;;;;12.24;53.54;98687.84;10393466;28;20236;-75
2023/04/01 10:07:20;;;;;;;4.37;2.50;;;;;;;11.71;53.40;98635.56;10392688;28;20245;-75
2023/04/01 10:12:43;;;;;;;2.63;2.43;;;;;;;12.25;52.65;98681.47;10392572;28;20609;-75
2023/04/01 10:17:56;;;;;;;2.07;1.83;;;;;;;9.75;58.05;98504.06;10407356;28;20232;-75
2023/04/01 10:23:09;;;;;;;3.27;2.13;;;;;;;10.45;55.55;98551.53;10430409;28;20251;-74
2023/04/01 10:28:26;;;;;;;2.13;1.93;;;;;;;11.43;54.35;98622.59;10434733;28;20238;-75
2023/04/01 10:33:59;;;;;;;1.90;1.80;;;;;;;11.68;53.65;98651.28;10430228;28;20232;-74
2023/04/01 10:39:13;;;;;;;2.37;2.27;;;;;;;10.97;54.93;98616.53;10434916;28;20746;-74
2023/04/01 10:44:51;;;;;;;1.90;1.80;;;;;;;10.64;56.63;98614.00;10430183;28;20665;-75
2023/04/01 10:50:05;;;;;;;2.37;2.27;;;;;;;11.54;54.94;98664.75;10431944;28;20290;-75
2023/04/01 10:55:28;;;;;;;2.03;1.93;;;;;;;10.51;56.02;98588.13;10428513;28;20236;-75
2023/04/01 11:06:48;;;;;;;2.00;1.90;;;;;;;9.29;60.33;98620.59;10438032;27;20843;-74
2023/04/01 11:12:14;;;;;;;2.10;2.00;;;;;;;9.06;60.54;98583.63;10390002;28;20229;-74
2023/04/01 11:17:53;;;;;;;1.90;1.80;;;;;;;9.28;60.86;98626.16;10367078;28;21690;-74
2023/04/01 11:23:42;;;;;;;2.20;2.10;;;;;;;9.66;60.54;98641.56;10361532;28;20240;-74
2023/04/01 11:29:03;;;;;;;2.27;2.10;;;;;;;9.45;61.08;98651.44;10336927;28;20786;-74
2023/04/01 11:34:23;;;;;;;2.83;2.40;;;;;;;10.98;57.46;98741.28;10392531;28;20849;-74
2023/04/01 11:39:42;;;;;;;2.23;2.13;;;;;;;10.60;57.56;98706.41;10366429;28;20252;-74
2023/04/01 11:45:08;;;;;;;1.97;1.87;;;;;;;10.70;56.79;98726.34;10359270;28;20233;-73
2023/04/01 11:50:20;;;;;;;2.37;2.27;;;;;;;11.14;55.49;98749.88;10365691;28;20240;-74
2023/04/01 11:55:59;;;;;;;1.70;1.60;;;;;;;10.08;57.35;98679.59;10401546;28;20225;-74
2023/04/01 12:01:19;;;;;;;2.33;2.23;;;;;;;10.50;56.28;98705.00;10385908;28;20224;-74
2023/04/01 12:06:38;;;;;;;1.83;1.73;;;;;;;10.86;55.33;98710.88;10390071;28;20657;-73
2023/04/01 12:11:59;;;;;;;2.30;2.20;;;;;;;11.40;55.16;98765.78;10400050;28;20765;-73
2023/04/01 12:17:28;;;;;;;1.70;1.60;;;;;;;11.78;53.94;98799.81;10379966;28;20640;-73
2023/04/01 12:22:40;;;;;;;2.37;2.10;;;;;;;11.22;54.58;98722.81;10341763;28;20225;-73
2023/04/01 12:27:53;;;;;;;3.30;2.20;;;;;;;12.13;53.78;98801.19;10362135;28;20295;-73
2023/04/01 12:33:16;;;;;;;2.20;2.10;;;;;;;11.65;53.53;98754.34;10361868;28;20234;-71
2023/04/01 12:39:03;;;;;;;2.40;2.20;;;;;;;11.35;54.16;98722.75;10373321;28;20277;-71
2023/04/01 12:44:29;;;;;;;1.90;1.80;;;;;;;11.78;54.00;98754.25;10378309;28;20260;-70
2023/04/01 12:49:39;;;;;;;2.30;1.70;;;;;;;11.25;53.88;98711.69;10367430;28;20228;-70
2023/04/01 12:55:05;;;;;;;2.17;2.07;;;;;;;12.10;52.77;98791.75;10366185;28;20221;-70
2023/04/01 13:00:19;;;;;;;2.03;1.93;;;;;;;11.18;53.75;98697.53;10366663;28;20719;-70
2023/04/01 13:06:07;;;;;;;1.70;1.60;;;;;;;12.26;52.57;98803.78;10370109;28;20243;-74
2023/04/01 13:11:20;;;;;;;2.80;2.60;;;;;;;12.29;52.78;98781.06;10375420;28;20225;-73
2023/04/01 13:16:57;;;;;;;3.20;2.10;;;;;;;10.88;53.45;98650.75;10380102;28;20217;-73
2023/04/01 13:21:58;;;;;;;2.77;2.57;;;;;;;11.83;52.10;98742.03;10373913;28;20248;-73
2023/04/01 13:27:18;;;;;;;1.90;1.80;;;;;;;11.41;53.19;98719.22;10377490;28;20279;-70
2023/04/01 13:32:34;;;;;;;2.43;2.27;;;;;;;11.10;53.26;98697.78;10377393;28;20255;-70
2023/04/01 13:38:08;;;;;;;1.97;1.87;;;;;;;12.05;52.28;98772.81;10388761;28;20662;-69
2023/04/01 13:43:25;;;;;;;2.27;2.17;;;;;;;12.69;50.71;98802.19;10391735;28;20241;-69
2023/04/01 13:48:44;;;;;;;2.00;1.90;;;;;;;12.07;52.28;98772.59;10372713;28;20232;-69
2023/04/01 13:53:57;;;;;;;1.83;1.73;;;;;;;10.97;54.70;98658.53;10374095;28;20221;-72
2023/04/01 13:59:11;;;;;;;1.80;1.70;;;;;;;12.33;53.11;98788.47;10373387;28;20747;-70
2023/04/01 14:04:16;;;;;;;2.43;2.30;;;;;;;9.84;57.47;98616.91;10371983;28;20233;-71
2023/04/01 14:09:55;;;;;;;1.90;1.80;;;;;;;12.26;53.85;98784.19;10374006;28;20241;-72
2023/04/01 14:15:22;;;;;;;2.00;1.90;;;;;;;12.29;53.24;98811.41;10388408;28;20305;-69
2023/04/01 14:20:36;;;;;;;2.07;1.87;;;;;;;10.58;55.57;98649.59;10371603;28;20239;-72
2023/04/01 14:25:53;;;;;;;1.90;1.80;;;;;;;11.91;53.68;98713.13;10375459;28;20712;-72
2023/04/01 14:31:05;;;;;;;1.90;1.80;;;;;;;9.49;56.64;98489.75;10376605;28;20251;-73
2023/04/01 14:36:22;;;;;;;2.27;2.10;;;;;;;12.24;53.72;98751.41;10377450;28;20298;-72
2023/04/01 14:41:58;;;;;;;2.07;1.90;;;;;;;11.37;54.88;98707.31;10378572;28;20213;-73
2023/04/01 14:47:35;;;;;;;2.03;1.80;;;;;;;10.82;55.34;98629.38;10381020;28;20251;-76
2023/04/01 14:52:41;;;;;;;2.40;2.30;;;;;;;12.57;53.19;98790.53;10366424;28;20299;-74
2023/04/01 14:57:59;;;;;;;2.50;2.30;;;;;;;11.74;54.46;98720.91;10373736;28;20712;-77
2023/04/01 15:03:39;;;;;;;2.70;2.60;;;;;;;13.18;52.17;98834.50;10348999;28;20589;-78
2023/04/01 15:09:06;;;;;;;2.63;2.20;;;;;;;12.89;51.47;98767.91;10319616;28;20234;-76
2023/04/01 15:14:10;;;;;;;3.37;1.90;;;;;;;11.75;54.25;98684.19;10335880;28;20250;-75
2023/04/01 15:19:19;;;;;;;2.60;2.40;;;;;;;13.77;51.06;98846.38;10333152;28;20237;-77
2023/04/01 15:24:24;;;;;;;2.70;2.50;;;;;;;13.85;50.74;98796.81;10325557;28;20226;-77
2023/04/01 15:29:32;;;;;;;2.90;2.70;;;;;;;13.18;50.64;98748.56;10316520;28;20616;-75
2023/04/01 15:35:09;;;;;;;3.73;3.03;;;;;;;13.95;49.93;98804.31;10318117;28;20237;-78
2023/04/01 15:40:22;;;;;;;3.03;2.83;;;;;;;13.66;50.14;98783.44;10320859;28;20245;-71
2023/04/01 15:45:23;;;;;;;2.43;2.10;;;;;;;13.90;49.86;98782.69;10357240;28;20281;-74
2023/04/01 15:50:31;;;;;;;3.10;2.30;;;;;;;13.29;51.21;98728.97;10372051;28;20244;-71
2023/04/01 15:55:45;;;;;;;2.43;2.10;;;;;;;13.97;49.71;98773.47;10370183;28;20311;-74
2023/04/01 16:00:52;;;;;;;3.23;2.53;;;;;;;14.74;48.86;98833.69;10364348;28;20339;-73
2023/04/01 16:06:07;;;;;;;3.37;2.13;;;;;;;13.69;50.23;98724.91;10372876;28;20240;-76
2023/04/01 16:11:18;;;;;;;3.83;3.17;;;;;;;14.42;48.78;98761.34;10364692;28;20327;-74
2023/04/01 16:16:46;;;;;;;2.30;2.10;;;;;;;13.47;50.64;98704.75;10368806;28;20248;-74
2023/04/01 16:22:25;;;;;;;3.77;2.60;;;;;;;13.49;50.16;98677.66;10372012;28;20239;-74
2023/04/01 16:28:12;;;;;;;2.87;2.07;;;;;;;12.14;52.75;98624.00;10364248;28;20230;-75
2023/04/01 16:33:52;;;;;;;3.57;2.30;;;;;;;12.05;52.38;98619.97;10365954;28;20881;-76
2023/04/01 16:38:56;;;;;;;2.63;2.30;;;;;;;12.59;51.29;98670.38;10362659;28;20761;-75
2023/04/01 16:44:17;;;;;;;3.20;2.20;;;;;;;12.27;50.81;98657.91;10364045;28;20271;-75
2023/04/01 16:49:40;;;;;;;1.80;1.70;;;;;;;11.56;51.07;98630.50;10368469;28;20728;-75
2023/04/01 16:54:58;;;;;;;2.40;2.20;;;;;;;12.93;49.31;98720.75;10370850;28;20275;-75
2023/04/01 17:00:17;;;;;;;2.63;2.20;;;;;;;12.46;49.16;98685.56;10369636;28;20668;-74
2023/04/01 17:05:33;;;;;;;2.03;1.93;;;;;;;13.26;48.35;98724.03;10373423;28;20256;-75
2023/04/01 17:10:46;;;;;;;1.80;1.70;;;;;;;12.47;49.91;98676.50;10380667;28;20232;-75
2023/04/01 17:16:17;;;;;;;3.27;2.87;;;;;;;13.66;48.34;98771.88;10381672;28;20347;-75
2023/04/01 17:21:41;;;;;;;1.80;1.70;;;;;;;13.43;48.60;98745.72;10333355;23;20265;-38
2023/04/01 17:26:55;;;;;;;2.63;2.40;;;;;;;13.32;48.78;98727.72;10276032;28;20246;-38
2023/04/01 17:32:12;;;;;;;2.40;1.90;;;;;;;13.85;48.35;98786.06;10280622;28;20230;-38
2023/04/01 17:37:32;;;;;;;2.20;2.10;;;;;;;13.88;48.36;98785.59;10279009;28;20242;-38
2023/04/01 17:42:52;;;;;;;3.53;2.33;;;;;;;13.61;48.33;98752.94;10293666;28;20715;-38
2023/04/01 17:48:08;;;;;;;3.57;2.50;;;;;;;13.46;48.45;98753.34;10290270;28;20644;-38
2023/04/01 17:53:23;;;;;;;5.23;3.03;;;;;;;13.67;47.93;98754.72;10278292;28;20579;-38
2023/04/01 17:59:13;;;;;;;5.50;3.00;;;;;;;13.37;48.15;98720.59;10285199;28;20226;-39
2023/04/01 18:04:43;;;;;;;5.23;3.07;;;;;;;13.74;47.73;98776.94;10274485;28;20227;-38
2023/04/01 18:10:08;;;;;;;3.17;2.87;;;;;;;13.15;47.49;98706.03;10289711;28;20230;-38
2023/04/01 18:15:18;;;;;;;1.97;1.77;;;;;;;13.51;48.40;98734.66;10283396;28;20693;-38
2023/04/01 18:20:26;;;;;;;4.27;2.53;;;;;;;12.55;50.42;98703.03;10293343;28;20770;-38
2023/04/01 18:25:40;;;;;;;3.30;2.20;;;;;;;11.71;52.51;98678.44;10282623;28;20225;-38
2023/04/01 18:30:46;;;;;;;3.13;1.90;;;;;;;11.70;50.87;98650.00;10287184;28;20723;-38
2023/04/01 18:35:53;;;;;;;2.40;2.20;;;;;;;11.99;50.31;98666.44;10279891;28;20249;-38
2023/04/01 18:41:05;;;;;;;2.80;2.60;;;;;;;13.36;49.50;98763.81;10275733;28;20262;-38
2023/04/01 18:46:30;;;;;;;3.17;2.30;;;;;;;12.41;49.55;98690.78;10284212;28;20654;-38
2023/04/01 18:51:45;;;;;;;2.40;2.20;;;;;;;11.91;51.30;98710.44;10284001;28;20234;-38
2023/04/01 18:56:48;;;;;;;3.00;2.43;;;;;;;10.80;52.63;98647.47;10283860;28;20376;-38
2023/04/01 19:01:56;;;;;;;2.60;2.40;;;;;;;11.05;52.83;98701.94;10288829;28;20797;-38
2023/04/01 19:07:01;;;;;;;3.67;2.37;;;;;;;11.48;51.98;98734.44;10270772;28;20890;-38
2023/04/01 19:12:12;;;;;;;3.57;2.83;;;;;;;11.92;52.15;98772.91;10290141;28;20234;-38
2023/04/01 19:17:32;;;;;;;3.63;3.10;;;;;;;12.00;50.70;98733.25;10283919;28;20270;-38
2023/04/01 19:23:01;;;;;;;3.83;3.33;;;;;;;12.77;49.06;98768.84;10289144;28;20227;-38
2023/04/01 19:28:30;;;;;;;3.20;2.80;;;;;;;12.19;50.56;98777.00;10295026;28;20233;-38
2023/04/01 19:34:06;;;;;;;3.40;2.60;;;;;;;11.85;50.24;98756.88;10289076;28;20230;-38
2023/04/01 19:39:35;;;;;;;2.67;2.47;;;;;;;11.92;50.19;98754.97;10290229;28;20245;-39
2023/04/01 19:45:04;;;;;;;3.30;2.60;;;;;;;12.03;50.13;98758.81;10296404;28;20234;-38
2023/04/01 19:50:28;;;;;;;2.57;2.37;;;;;;;12.07;50.05;98757.31;10294888;28;20738;-38
2023/04/01 19:55:55;;;;;;;4.33;3.20;;;;;;;12.02;50.93;98797.38;10289504;28;20549;-38
2023/04/01 20:00:59;;;;;;;4.13;3.00;;;;;;;12.48;50.17;98806.09;10282186;28;20710;-38
2023/04/01 20:06:29;;;;;;;3.33;3.03;;;;;;;12.24;49.55;98746.88;10288624;28;20726;-38
2023/04/01 20:11:50;;;;;;;3.40;2.50;;;;;;;13.15;49.39;98848.38;10293724;28;20688;-38
2023/04/01 20:17:07;;;;;;;3.37;2.17;;;;;;;13.57;47.31;98852.03;10295246;28;20473;-38
2023/04/01 20:22:28;;;;;;;3.27;2.50;;;;;;;12.14;49.71;98800.19;10303528;28;20261;-38
2023/04/01 20:27:36;;;;;;;4.00;2.40;;;;;;;12.77;48.71;98828.72;10289846;28;20731;-38
2023/04/01 20:32:43;;;;;;;4.30;2.60;;;;;;;12.99;48.55;98836.34;10301531;28;20500;-38
2023/04/01 20:38:13;;;;;;;4.20;2.80;;;;;;;12.60;49.45;98830.34;10295274;28;20261;-38
2023/04/01 20:43:47;;;;;;;4.23;2.70;;;;;;;12.84;48.95;98836.72;10296704;28;20241;-38
2023/04/01 20:48:52;;;;;;;4.80;3.03;;;;;;;11.43;50.41;98760.00;10287256;28;20235;-38
2023/04/01 20:54:23;;;;;;;3.40;2.50;;;;;;;12.65;48.51;98809.84;10286539;28;20277;-38
2023/04/01 20:59:40;;;;;;;2.70;2.20;;;;;;;12.49;49.44;98839.97;10284244;28;20233;-38
2023/04/01 21:04:47;;;;;;;2.53;2.30;;;;;;;12.82;49.80;98863.81;10290853;28;20266;-38
2023/04/01 21:10:08;;;;;;;3.27;2.50;;;;;;;10.91;51.62;98769.13;10287685;28;20258;-38
2023/04/01 21:15:33;;;;;;;2.30;2.07;;;;;;;10.99;52.10;98812.53;10285910;28;20243;-38
2023/04/01 21:21:08;;;;;;;3.50;2.53;;;;;;;10.99;52.21;98799.16;10293684;28;20222;-38
2023/04/01 21:26:38;;;;;;;2.97;2.70;;;;;;;11.91;50.69;98833.75;10295846;28;20235;-39
2023/04/01 21:31:49;;;;;;;2.57;2.37;;;;;;;12.22;49.86;98850.06;10283585;28;20237;-39
2023/04/01 21:37:03;;;;;;;3.23;2.50;;;;;;;12.64;48.75;98831.56;10292491;28;20253;-39
2023/04/01 21:42:05;;;;;;;2.90;2.60;;;;;;;11.79;50.51;98822.06;10281950;28;20756;-38
2023/04/01 21:47:07;;;;;;;5.40;2.80;;;;;;;12.13;49.53;98861.03;10296703;28;20245;-38
2023/04/01 21:52:20;;;;;;;3.07;2.87;;;;;;;11.21;51.59;98822.97;10289885;28;20340;-38
2023/04/01 21:57:55;;;;;;;3.77;2.30;;;;;;;12.57;49.34;98869.19;10285267;28;20256;-38
2023/04/01 22:03:31;;;;;;;2.37;2.10;;;;;;;12.52;49.53;98869.84;10283551;28;20846;-38
2023/04/01 22:08:52;;;;;;;3.93;2.90;;;;;;;12.50;50.03;98888.03;10295096;28;20232;-38
2023/04/01 22:14:01;;;;;;;2.60;2.40;;;;;;;11.73;49.83;98825.63;10288313;28;20242;-39
2023/04/01 22:19:21;;;;;;;2.97;2.70;;;;;;;13.22;47.70;98908.22;10293492;28;20264;-38
2023/04/01 22:24:39;;;;;;;2.43;2.33;;;;;;;12.36;50.06;98908.72;10293572;28;20227;-38
2023/04/01 22:29:48;;;;;;;2.40;2.20;;;;;;;13.27;47.90;98917.25;10287490;28;20230;-38
2023/04/01 22:35:02;;;;;;;2.40;2.20;;;;;;;11.63;49.33;98815.38;10279684;28;20726;-38
2023/04/01 22:40:13;;;;;;;3.30;2.17;;;;;;;13.19;48.52;98936.34;10286939;28;20234;-38
2023/04/01 22:45:59;;;;;;;2.27;2.10;;;;;;;12.77;49.29;98905.75;10279981;28;20258;-38
2023/04/01 22:51:13;;;;;;;2.90;2.50;;;;;;;12.57;49.28;98901.41;10284250;28;20333;-38
2023/04/01 22:56:20;;;;;;;3.37;2.10;;;;;;;12.11;49.49;98857.72;10288593;28;20233;-38
2023/04/01 23:01:29;;;;;;;1.93;1.83;;;;;;;12.86;48.10;98905.25;10292053;28;20366;-38
2023/04/01 23:06:38;;;;;;;3.00;2.70;;;;;;;11.92;50.37;98893.56;10292326;28;20235;-38
2023/04/01 23:12:09;;;;;;;2.27;2.10;;;;;;;13.35;48.43;98937.66;10274011;28;20232;-38
2023/04/01 23:17:48;;;;;;;2.50;2.40;;;;;;;11.77;50.35;98870.53;10272219;28;20230;-38
2023/04/01 23:22:54;;;;;;;2.33;2.13;;;;;;;12.37;50.18;98906.88;10270934;28;20250;-38
2023/04/01 23:28:08;;;;;;;2.80;2.47;;;;;;;12.38;49.97;98892.41;10273716;28;20243;-38
2023/04/01 23:33:19;;;;;;;3.13;2.43;;;;;;;11.50;50.70;98864.44;10275747;28;20284;-38
2023/04/01 23:38:24;;;;;;;2.70;2.50;;;;;;;12.62;50.39;98935.63;10271120;28;20341;-40
2023/04/01 23:43:31;;;;;;;2.80;2.60;;;;;;;11.26;51.21;98844.56;10282116;28;20211;-39
2023/04/01 23:48:38;;;;;;;2.20;2.00;;;;;;;11.00;53.74;98888.28;10273027;28;20227;-39
2023/04/01 23:53:44;;;;;;;2.10;1.90;;;;;;;9.62;54.32;98731.13;10279842;28;20230;-39
2023/04/01 23:58:52;;;;;;;2.67;2.47;;;;;;;10.94;52.94;98889.97;10275104;28;20227;-38
